Butte, MT

8:33 PM MDT on August 30, 2015 (GMT -0600)
Mooney | | Change Station
CLOSE
Current Station
Airport
Location: Butte,
Elevation: 5545 ft
Nearby Weather Stations

Elev 5545 ft 45.95 °N, 112.50 °W | Updated 40 minutes ago

Partly Cloudy
Partly Cloudy
65 °F
Feels Like 65 °F
N
15
Wind Variable Wind from West
Gusts 23 mph

Today
High -- | Low -- °F
--% Chance of Precip.
Yesterday
High -- | Low -- °F
Precip. -- in
6:48 AM 8:12 PM
Full, 97% visible
Pressure 29.80 in
Visibility 10.0 miles
Clouds Clear
Dew Point 28 °F
Humidity 25%
Rainfall 0.30 in
Snow Depth Not available.
UV 0 out of 12
Pollen 8.10 out of 12
Air Quality Not available.
Flu Activity Not available.
METAR KBTM 310153Z AUTO 27013G20KT 10SM CLR 18/M02 A2994 RMK AO2 SLP091 T01831022
Pressure 29.80 in
Visibility 10.0 miles
Clouds Clear
Dew Point 28 °F
Humidity 25%
Rainfall 0.30 in
Snow Depth Not available.
UV 0 out of 12
Pollen 8.10 out of 12
Air Quality Not available.
Flu Activity Not available.
METAR KBTM 310153Z AUTO 27013G20KT 10SM CLR 18/M02 A2994 RMK AO2 SLP091 T01831022

10-Day Weather Forecast

×

Almanac

Astronomy

Aug. 30, 2015 Rise Set
Actual Time
Civil Twilight
Nautical Twilight
Astronomical Twilight
Moon
Length of Visible Light
Length of Day
Tomorrow will be .
, % of the Moon is Illuminated

Today's Extremes

State Highs State Lows

Community

WunderPhotos

Upload Photos

1,851,164 photos uploaded!

WunderBlogs® & News

Nearby

Air Quality

  Air Quality AQ Index Pollutant
Not available.

Snow Depth

Station Depth Elevation

Earthquake Activity

City Distance Mag. Time & Date
Minimum magnitude displayed is 2.5.

Coastal Water Temperatures

Place Temperature

Stations

Nearby Weather Stations

Station Location Temp. Windchill Dew Point Humidity Wind Precip. Elev Updated Type